sensor_id;sensor_type;location;lat;lon;timestamp;P1;durP1;ratioP1;P2;durP2;ratioP2
10880;SDS011;5493;48.884;8.338;2023-07-20T00:02:23;3.28;;;1.85;;
10880;SDS011;5493;48.884;8.338;2023-07-20T00:04:50;3.97;;;1.90;;
10880;SDS011;5493;48.884;8.338;2023-07-20T00:07:16;3.80;;;2.10;;
10880;SDS011;5493;48.884;8.338;2023-07-20T00:09:43;4.82;;;2.00;;
10880;SDS011;5493;48.884;8.338;2023-07-20T00:12:09;2.20;;;1.90;;
10880;SDS011;5493;48.884;8.338;2023-07-20T00:14:36;3.03;;;1.70;;
10880;SDS011;5493;48.884;8.338;2023-07-20T00:17:04;3.10;;;2.10;;
10880;SDS011;5493;48.884;8.338;2023-07-20T00:19:31;4.82;;;1.85;;
10880;SDS011;5493;48.884;8.338;2023-07-20T00:21:57;2.67;;;1.90;;
10880;SDS011;5493;48.884;8.338;2023-07-20T00:24:24;2.20;;;1.83;;
10880;SDS011;5493;48.884;8.338;2023-07-20T00:26:50;3.00;;;1.73;;
10880;SDS011;5493;48.884;8.338;2023-07-20T00:29:17;2.33;;;2.00;;
10880;SDS011;5493;48.884;8.338;2023-07-20T00:31:44;3.72;;;1.85;;
10880;SDS011;5493;48.884;8.338;2023-07-20T00:34:12;1.90;;;1.70;;
10880;SDS011;5493;48.884;8.338;2023-07-20T00:36:38;3.28;;;1.70;;
10880;SDS011;5493;48.884;8.338;2023-07-20T00:39:05;4.47;;;1.97;;
10880;SDS011;5493;48.884;8.338;2023-07-20T00:41:32;2.65;;;2.00;;
10880;SDS011;5493;48.884;8.338;2023-07-20T00:43:58;1.98;;;1.63;;
10880;SDS011;5493;48.884;8.338;2023-07-20T00:46:25;3.60;;;1.70;;
10880;SDS011;5493;48.884;8.338;2023-07-20T00:48:51;4.03;;;1.90;;
10880;SDS011;5493;48.884;8.338;2023-07-20T00:51:20;5.05;;;1.80;;
10880;SDS011;5493;48.884;8.338;2023-07-20T00:53:47;1.80;;;1.70;;
10880;SDS011;5493;48.884;8.338;2023-07-20T00:56:14;3.67;;;2.10;;
10880;SDS011;5493;48.884;8.338;2023-07-20T00:58:41;2.50;;;2.10;;
10880;SDS011;5493;48.884;8.338;2023-07-20T01:01:08;4.40;;;2.08;;
10880;SDS011;5493;48.884;8.338;2023-07-20T01:03:34;2.00;;;1.60;;
10880;SDS011;5493;48.884;8.338;2023-07-20T01:06:02;2.40;;;1.75;;
10880;SDS011;5493;48.884;8.338;2023-07-20T01:08:38;2.63;;;1.93;;
10880;SDS011;5493;48.884;8.338;2023-07-20T01:11:10;3.70;;;1.90;;
10880;SDS011;5493;48.884;8.338;2023-07-20T01:13:42;2.47;;;1.90;;
10880;SDS011;5493;48.884;8.338;2023-07-20T01:16:10;2.90;;;1.83;;
10880;SDS011;5493;48.884;8.338;2023-07-20T01:18:36;3.20;;;1.83;;
10880;SDS011;5493;48.884;8.338;2023-07-20T01:21:04;3.90;;;1.90;;
10880;SDS011;5493;48.884;8.338;2023-07-20T01:23:45;3.17;;;1.75;;
10880;SDS011;5493;48.884;8.338;2023-07-20T01:26:32;2.37;;;1.80;;
10880;SDS011;5493;48.884;8.338;2023-07-20T01:29:22;3.53;;;1.80;;
10880;SDS011;5493;48.884;8.338;2023-07-20T01:32:11;4.43;;;1.83;;
10880;SDS011;5493;48.884;8.338;2023-07-20T01:34:37;4.00;;;2.00;;
10880;SDS011;5493;48.884;8.338;2023-07-20T01:37:07;3.13;;;1.83;;
10880;SDS011;5493;48.884;8.338;2023-07-20T01:39:35;1.83;;;1.60;;
10880;SDS011;5493;48.884;8.338;2023-07-20T01:42:03;4.30;;;2.10;;
10880;SDS011;5493;48.884;8.338;2023-07-20T01:44:30;2.47;;;1.80;;
10880;SDS011;5493;48.884;8.338;2023-07-20T01:46:57;2.83;;;1.80;;
10880;SDS011;5493;48.884;8.338;2023-07-20T01:49:25;3.13;;;1.83;;
10880;SDS011;5493;48.884;8.338;2023-07-20T01:51:51;2.27;;;1.80;;
10880;SDS011;5493;48.884;8.338;2023-07-20T01:54:18;1.90;;;1.70;;
10880;SDS011;5493;48.884;8.338;2023-07-20T01:56:45;3.07;;;2.00;;
10880;SDS011;5493;48.884;8.338;2023-07-20T01:59:11;2.27;;;1.70;;
10880;SDS011;5493;48.884;8.338;2023-07-20T02:01:38;4.17;;;1.90;;
10880;SDS011;5493;48.884;8.338;2023-07-20T02:04:04;2.33;;;1.50;;
10880;SDS011;5493;48.884;8.338;2023-07-20T02:06:32;3.83;;;1.63;;
10880;SDS011;5493;48.884;8.338;2023-07-20T02:08:58;5.97;;;2.00;;
10880;SDS011;5493;48.884;8.338;2023-07-20T02:11:25;2.83;;;1.90;;
10880;SDS011;5493;48.884;8.338;2023-07-20T02:13:52;2.87;;;2.00;;
10880;SDS011;5493;48.884;8.338;2023-07-20T02:16:18;3.73;;;1.90;;
10880;SDS011;5493;48.884;8.338;2023-07-20T02:18:45;3.57;;;1.80;;
10880;SDS011;5493;48.884;8.338;2023-07-20T02:21:11;2.67;;;1.60;;
10880;SDS011;5493;48.884;8.338;2023-07-20T02:23:39;3.00;;;1.73;;
10880;SDS011;5493;48.884;8.338;2023-07-20T02:26:06;2.67;;;1.77;;
10880;SDS011;5493;48.884;8.338;2023-07-20T02:28:32;2.63;;;1.80;;
10880;SDS011;5493;48.884;8.338;2023-07-20T02:30:59;3.80;;;1.70;;
10880;SDS011;5493;48.884;8.338;2023-07-20T02:33:26;3.53;;;1.97;;
10880;SDS011;5493;48.884;8.338;2023-07-20T02:35:52;2.80;;;1.70;;
10880;SDS011;5493;48.884;8.338;2023-07-20T02:38:19;2.40;;;1.53;;
10880;SDS011;5493;48.884;8.338;2023-07-20T02:40:47;4.93;;;1.60;;
10880;SDS011;5493;48.884;8.338;2023-07-20T02:43:13;2.13;;;1.70;;
10880;SDS011;5493;48.884;8.338;2023-07-20T02:45:40;4.00;;;1.53;;
10880;SDS011;5493;48.884;8.338;2023-07-20T02:48:07;1.93;;;1.50;;
10880;SDS011;5493;48.884;8.338;2023-07-20T02:50:34;2.53;;;1.73;;
10880;SDS011;5493;48.884;8.338;2023-07-20T02:53:01;5.67;;;1.77;;
10880;SDS011;5493;48.884;8.338;2023-07-20T02:55:28;2.33;;;1.57;;
10880;SDS011;5493;48.884;8.338;2023-07-20T02:57:56;2.23;;;1.50;;
10880;SDS011;5493;48.884;8.338;2023-07-20T03:00:22;3.23;;;2.00;;
10880;SDS011;5493;48.884;8.338;2023-07-20T03:02:50;2.97;;;1.73;;
10880;SDS011;5493;48.884;8.338;2023-07-20T03:05:20;2.70;;;1.70;;
10880;SDS011;5493;48.884;8.338;2023-07-20T03:07:47;3.30;;;1.83;;
10880;SDS011;5493;48.884;8.338;2023-07-20T03:10:14;2.93;;;1.70;;
10880;SDS011;5493;48.884;8.338;2023-07-20T03:12:40;4.47;;;1.70;;
10880;SDS011;5493;48.884;8.338;2023-07-20T03:15:09;2.00;;;1.73;;
10880;SDS011;5493;48.884;8.338;2023-07-20T03:17:36;1.90;;;1.50;;
10880;SDS011;5493;48.884;8.338;2023-07-20T03:20:03;2.23;;;1.80;;
10880;SDS011;5493;48.884;8.338;2023-07-20T03:22:34;2.30;;;1.70;;
10880;SDS011;5493;48.884;8.338;2023-07-20T03:25:00;5.90;;;2.30;;
10880;SDS011;5493;48.884;8.338;2023-07-20T03:27:27;3.67;;;2.20;;
10880;SDS011;5493;48.884;8.338;2023-07-20T03:29:54;4.37;;;1.77;;
10880;SDS011;5493;48.884;8.338;2023-07-20T03:32:22;2.97;;;1.60;;
10880;SDS011;5493;48.884;8.338;2023-07-20T03:34:48;4.03;;;1.60;;
10880;SDS011;5493;48.884;8.338;2023-07-20T03:37:15;2.90;;;1.40;;
10880;SDS011;5493;48.884;8.338;2023-07-20T03:39:41;3.27;;;1.73;;
10880;SDS011;5493;48.884;8.338;2023-07-20T03:42:08;3.70;;;1.80;;
10880;SDS011;5493;48.884;8.338;2023-07-20T03:44:34;2.33;;;1.83;;
10880;SDS011;5493;48.884;8.338;2023-07-20T03:47:01;2.87;;;1.67;;
10880;SDS011;5493;48.884;8.338;2023-07-20T03:49:29;1.80;;;1.53;;
10880;SDS011;5493;48.884;8.338;2023-07-20T03:51:56;6.53;;;1.87;;
10880;SDS011;5493;48.884;8.338;2023-07-20T03:54:23;3.17;;;1.57;;
10880;SDS011;5493;48.884;8.338;2023-07-20T03:56:49;3.17;;;2.10;;
10880;SDS011;5493;48.884;8.338;2023-07-20T03:59:16;3.07;;;1.90;;
10880;SDS011;5493;48.884;8.338;2023-07-20T04:01:42;3.30;;;1.80;;
10880;SDS011;5493;48.884;8.338;2023-07-20T04:04:09;3.13;;;1.70;;
10880;SDS011;5493;48.884;8.338;2023-07-20T04:06:37;1.93;;;1.70;;
10880;SDS011;5493;48.884;8.338;2023-07-20T04:09:03;3.40;;;1.70;;
10880;SDS011;5493;48.884;8.338;2023-07-20T04:11:30;2.50;;;1.80;;
10880;SDS011;5493;48.884;8.338;2023-07-20T04:13:57;3.10;;;1.80;;
10880;SDS011;5493;48.884;8.338;2023-07-20T04:16:24;4.10;;;1.90;;
10880;SDS011;5493;48.884;8.338;2023-07-20T04:18:51;3.80;;;2.30;;
10880;SDS011;5493;48.884;8.338;2023-07-20T04:21:17;2.87;;;1.90;;
10880;SDS011;5493;48.884;8.338;2023-07-20T04:23:45;4.00;;;2.63;;
10880;SDS011;5493;48.884;8.338;2023-07-20T04:26:12;3.97;;;1.90;;
10880;SDS011;5493;48.884;8.338;2023-07-20T04:28:39;4.87;;;2.00;;
10880;SDS011;5493;48.884;8.338;2023-07-20T04:31:10;5.20;;;2.30;;
10880;SDS011;5493;48.884;8.338;2023-07-20T04:33:37;3.47;;;2.10;;
10880;SDS011;5493;48.884;8.338;2023-07-20T04:36:04;3.53;;;1.87;;
10880;SDS011;5493;48.884;8.338;2023-07-20T04:38:31;2.33;;;1.77;;
10880;SDS011;5493;48.884;8.338;2023-07-20T04:40:59;3.80;;;1.70;;
10880;SDS011;5493;48.884;8.338;2023-07-20T04:43:25;2.57;;;1.93;;
10880;SDS011;5493;48.884;8.338;2023-07-20T04:45:52;4.47;;;1.90;;
10880;SDS011;5493;48.884;8.338;2023-07-20T04:48:19;2.93;;;1.80;;
10880;SDS011;5493;48.884;8.338;2023-07-20T04:50:45;2.67;;;1.60;;
10880;SDS011;5493;48.884;8.338;2023-07-20T04:53:12;2.70;;;1.90;;
10880;SDS011;5493;48.884;8.338;2023-07-20T04:55:39;4.83;;;1.90;;
10880;SDS011;5493;48.884;8.338;2023-07-20T04:58:07;2.70;;;1.70;;
10880;SDS011;5493;48.884;8.338;2023-07-20T05:00:34;11.10;;;1.77;;
10880;SDS011;5493;48.884;8.338;2023-07-20T05:03:01;2.90;;;1.80;;
10880;SDS011;5493;48.884;8.338;2023-07-20T05:05:30;2.28;;;1.80;;
10880;SDS011;5493;48.884;8.338;2023-07-20T05:07:56;3.53;;;1.98;;
10880;SDS011;5493;48.884;8.338;2023-07-20T05:10:23;3.50;;;2.00;;
10880;SDS011;5493;48.884;8.338;2023-07-20T05:12:49;3.90;;;1.70;;
10880;SDS011;5493;48.884;8.338;2023-07-20T05:15:17;4.97;;;1.80;;
10880;SDS011;5493;48.884;8.338;2023-07-20T05:17:44;5.07;;;1.98;;
10880;SDS011;5493;48.884;8.338;2023-07-20T05:20:11;2.83;;;1.88;;
10880;SDS011;5493;48.884;8.338;2023-07-20T05:22:38;2.90;;;1.88;;
10880;SDS011;5493;48.884;8.338;2023-07-20T05:25:06;4.25;;;2.10;;
10880;SDS011;5493;48.884;8.338;2023-07-20T05:27:34;3.70;;;1.83;;
10880;SDS011;5493;48.884;8.338;2023-07-20T05:30:02;2.10;;;1.83;;
10880;SDS011;5493;48.884;8.338;2023-07-20T05:32:30;2.22;;;1.77;;
10880;SDS011;5493;48.884;8.338;2023-07-20T05:34:57;5.75;;;1.95;;
10880;SDS011;5493;48.884;8.338;2023-07-20T05:37:23;4.72;;;2.35;;
10880;SDS011;5493;48.884;8.338;2023-07-20T05:39:50;3.33;;;1.77;;
10880;SDS011;5493;48.884;8.338;2023-07-20T05:42:17;4.00;;;2.00;;
10880;SDS011;5493;48.884;8.338;2023-07-20T05:44:43;3.20;;;1.80;;
10880;SDS011;5493;48.884;8.338;2023-07-20T05:47:10;3.97;;;1.80;;
10880;SDS011;5493;48.884;8.338;2023-07-20T05:49:38;2.50;;;1.90;;
10880;SDS011;5493;48.884;8.338;2023-07-20T05:52:05;3.53;;;1.70;;
10880;SDS011;5493;48.884;8.338;2023-07-20T05:54:32;3.05;;;1.83;;
10880;SDS011;5493;48.884;8.338;2023-07-20T05:56:58;3.35;;;1.73;;
10880;SDS011;5493;48.884;8.338;2023-07-20T05:59:26;4.50;;;1.85;;
10880;SDS011;5493;48.884;8.338;2023-07-20T06:01:54;3.38;;;1.70;;
10880;SDS011;5493;48.884;8.338;2023-07-20T06:04:21;2.80;;;1.75;;
10880;SDS011;5493;48.884;8.338;2023-07-20T06:06:49;3.85;;;1.73;;
10880;SDS011;5493;48.884;8.338;2023-07-20T06:09:15;2.40;;;1.67;;
10880;SDS011;5493;48.884;8.338;2023-07-20T06:11:42;2.53;;;1.80;;
10880;SDS011;5493;48.884;8.338;2023-07-20T06:14:08;2.70;;;2.00;;
10880;SDS011;5493;48.884;8.338;2023-07-20T06:16:35;3.25;;;1.80;;
10880;SDS011;5493;48.884;8.338;2023-07-20T06:19:01;2.83;;;2.28;;
10880;SDS011;5493;48.884;8.338;2023-07-20T06:21:28;3.20;;;2.10;;
10880;SDS011;5493;48.884;8.338;2023-07-20T06:23:56;4.07;;;1.90;;
10880;SDS011;5493;48.884;8.338;2023-07-20T06:26:23;3.25;;;1.90;;
10880;SDS011;5493;48.884;8.338;2023-07-20T06:28:50;2.50;;;1.95;;
10880;SDS011;5493;48.884;8.338;2023-07-20T06:31:16;3.90;;;1.95;;
10880;SDS011;5493;48.884;8.338;2023-07-20T06:33:43;3.88;;;1.90;;
10880;SDS011;5493;48.884;8.338;2023-07-20T06:36:10;5.50;;;1.98;;
10880;SDS011;5493;48.884;8.338;2023-07-20T06:38:37;3.70;;;1.85;;
10880;SDS011;5493;48.884;8.338;2023-07-20T06:41:04;3.72;;;1.88;;
10880;SDS011;5493;48.884;8.338;2023-07-20T06:43:31;5.25;;;2.33;;
10880;SDS011;5493;48.884;8.338;2023-07-20T06:45:58;2.70;;;2.00;;
10880;SDS011;5493;48.884;8.338;2023-07-20T06:48:24;4.50;;;2.00;;
10880;SDS011;5493;48.884;8.338;2023-07-20T06:50:51;2.97;;;2.08;;
10880;SDS011;5493;48.884;8.338;2023-07-20T06:53:18;2.85;;;2.15;;
10880;SDS011;5493;48.884;8.338;2023-07-20T06:55:45;4.05;;;1.95;;
10880;SDS011;5493;48.884;8.338;2023-07-20T06:58:13;5.43;;;1.88;;
10880;SDS011;5493;48.884;8.338;2023-07-20T07:00:39;5.78;;;2.17;;
10880;SDS011;5493;48.884;8.338;2023-07-20T07:03:06;3.15;;;1.83;;
10880;SDS011;5493;48.884;8.338;2023-07-20T07:05:35;3.40;;;2.00;;
10880;SDS011;5493;48.884;8.338;2023-07-20T07:08:03;3.05;;;1.92;;
10880;SDS011;5493;48.884;8.338;2023-07-20T07:10:30;8.50;;;2.25;;
10880;SDS011;5493;48.884;8.338;2023-07-20T07:12:57;3.20;;;2.00;;
10880;SDS011;5493;48.884;8.338;2023-07-20T07:15:26;4.38;;;1.88;;
10880;SDS011;5493;48.884;8.338;2023-07-20T07:17:53;4.07;;;1.80;;
10880;SDS011;5493;48.884;8.338;2023-07-20T07:20:20;2.53;;;1.90;;
10880;SDS011;5493;48.884;8.338;2023-07-20T07:22:47;3.95;;;2.20;;
10880;SDS011;5493;48.884;8.338;2023-07-20T07:25:14;6.10;;;2.25;;
10880;SDS011;5493;48.884;8.338;2023-07-20T07:27:40;3.78;;;2.33;;
10880;SDS011;5493;48.884;8.338;2023-07-20T07:30:07;5.20;;;2.05;;
10880;SDS011;5493;48.884;8.338;2023-07-20T07:32:35;3.17;;;2.00;;
10880;SDS011;5493;48.884;8.338;2023-07-20T07:35:02;2.75;;;1.90;;
10880;SDS011;5493;48.884;8.338;2023-07-20T07:37:29;4.50;;;1.90;;
10880;SDS011;5493;48.884;8.338;2023-07-20T07:39:55;4.45;;;1.90;;
10880;SDS011;5493;48.884;8.338;2023-07-20T07:42:22;2.00;;;1.50;;
10880;SDS011;5493;48.884;8.338;2023-07-20T07:44:49;2.63;;;1.88;;
10880;SDS011;5493;48.884;8.338;2023-07-20T07:47:15;5.63;;;1.90;;
10880;SDS011;5493;48.884;8.338;2023-07-20T07:49:43;3.50;;;1.92;;
10880;SDS011;5493;48.884;8.338;2023-07-20T07:52:10;3.05;;;1.73;;
10880;SDS011;5493;48.884;8.338;2023-07-20T07:54:36;1.98;;;1.50;;
10880;SDS011;5493;48.884;8.338;2023-07-20T07:57:03;2.42;;;1.48;;
10880;SDS011;5493;48.884;8.338;2023-07-20T07:59:30;2.83;;;1.50;;
10880;SDS011;5493;48.884;8.338;2023-07-20T08:02:01;3.97;;;1.73;;
10880;SDS011;5493;48.884;8.338;2023-07-20T08:04:28;2.67;;;1.60;;
10880;SDS011;5493;48.884;8.338;2023-07-20T08:06:56;1.83;;;1.60;;
10880;SDS011;5493;48.884;8.338;2023-07-20T08:09:22;1.83;;;1.42;;
10880;SDS011;5493;48.884;8.338;2023-07-20T08:11:49;2.88;;;1.58;;
10880;SDS011;5493;48.884;8.338;2023-07-20T08:14:16;4.82;;;1.50;;
10880;SDS011;5493;48.884;8.338;2023-07-20T08:16:44;2.75;;;1.30;;
10880;SDS011;5493;48.884;8.338;2023-07-20T08:19:10;2.80;;;1.63;;
10880;SDS011;5493;48.884;8.338;2023-07-20T08:21:37;2.20;;;1.40;;
10880;SDS011;5493;48.884;8.338;2023-07-20T08:24:05;2.78;;;1.30;;
10880;SDS011;5493;48.884;8.338;2023-07-20T08:26:32;4.25;;;1.50;;
10880;SDS011;5493;48.884;8.338;2023-07-20T08:28:59;2.47;;;1.35;;
10880;SDS011;5493;48.884;8.338;2023-07-20T08:31:25;3.22;;;1.50;;
10880;SDS011;5493;48.884;8.338;2023-07-20T08:33:53;2.15;;;1.55;;
10880;SDS011;5493;48.884;8.338;2023-07-20T08:36:21;2.63;;;1.30;;
10880;SDS011;5493;48.884;8.338;2023-07-20T08:38:48;3.67;;;1.55;;
10880;SDS011;5493;48.884;8.338;2023-07-20T08:41:16;2.58;;;1.13;;
10880;SDS011;5493;48.884;8.338;2023-07-20T08:43:43;5.60;;;1.15;;
10880;SDS011;5493;48.884;8.338;2023-07-20T08:46:12;1.58;;;1.10;;
10880;SDS011;5493;48.884;8.338;2023-07-20T08:48:39;1.30;;;1.10;;
10880;SDS011;5493;48.884;8.338;2023-07-20T08:51:08;1.67;;;1.20;;
10880;SDS011;5493;48.884;8.338;2023-07-20T08:53:37;2.75;;;1.40;;
10880;SDS011;5493;48.884;8.338;2023-07-20T08:56:04;3.17;;;1.17;;
10880;SDS011;5493;48.884;8.338;2023-07-20T08:58:34;2.65;;;1.13;;
10880;SDS011;5493;48.884;8.338;2023-07-20T09:01:02;5.10;;;1.58;;
10880;SDS011;5493;48.884;8.338;2023-07-20T09:03:29;2.40;;;1.08;;
10880;SDS011;5493;48.884;8.338;2023-07-20T09:05:57;3.83;;;1.50;;
10880;SDS011;5493;48.884;8.338;2023-07-20T09:08:24;1.40;;;1.30;;
10880;SDS011;5493;48.884;8.338;2023-07-20T09:10:50;2.42;;;1.27;;
10880;SDS011;5493;48.884;8.338;2023-07-20T09:13:17;1.75;;;1.25;;
10880;SDS011;5493;48.884;8.338;2023-07-20T09:15:48;2.45;;;1.38;;
10880;SDS011;5493;48.884;8.338;2023-07-20T09:18:26;2.63;;;1.52;;
10880;SDS011;5493;48.884;8.338;2023-07-20T09:20:57;2.97;;;1.30;;
10880;SDS011;5493;48.884;8.338;2023-07-20T09:23:29;3.13;;;1.42;;
10880;SDS011;5493;48.884;8.338;2023-07-20T09:25:57;3.08;;;1.40;;
10880;SDS011;5493;48.884;8.338;2023-07-20T09:28:24;2.72;;;1.52;;
10880;SDS011;5493;48.884;8.338;2023-07-20T09:30:52;5.45;;;1.73;;
10880;SDS011;5493;48.884;8.338;2023-07-20T09:33:21;4.80;;;1.38;;
10880;SDS011;5493;48.884;8.338;2023-07-20T09:35:48;2.60;;;1.45;;
10880;SDS011;5493;48.884;8.338;2023-07-20T09:38:15;1.45;;;1.20;;
10880;SDS011;5493;48.884;8.338;2023-07-20T09:40:42;3.70;;;1.38;;
10880;SDS011;5493;48.884;8.338;2023-07-20T09:43:09;4.00;;;1.38;;
10880;SDS011;5493;48.884;8.338;2023-07-20T09:45:39;2.20;;;1.30;;
10880;SDS011;5493;48.884;8.338;2023-07-20T09:48:08;1.77;;;1.30;;
10880;SDS011;5493;48.884;8.338;2023-07-20T09:50:40;1.55;;;1.10;;
10880;SDS011;5493;48.884;8.338;2023-07-20T09:53:09;3.28;;;1.40;;
10880;SDS011;5493;48.884;8.338;2023-07-20T09:55:37;2.05;;;1.50;;
10880;SDS011;5493;48.884;8.338;2023-07-20T09:58:05;2.83;;;1.52;;
10880;SDS011;5493;48.884;8.338;2023-07-20T10:00:34;1.73;;;1.30;;
10880;SDS011;5493;48.884;8.338;2023-07-20T10:03:03;3.60;;;1.30;;
10880;SDS011;5493;48.884;8.338;2023-07-20T10:05:33;1.30;;;1.10;;
10880;SDS011;5493;48.884;8.338;2023-07-20T10:08:00;2.03;;;1.10;;
10880;SDS011;5493;48.884;8.338;2023-07-20T10:10:30;1.60;;;1.13;;
10880;SDS011;5493;48.884;8.338;2023-07-20T10:12:58;1.98;;;0.90;;
10880;SDS011;5493;48.884;8.338;2023-07-20T10:15:28;1.50;;;1.00;;
10880;SDS011;5493;48.884;8.338;2023-07-20T10:18:00;2.17;;;1.20;;
10880;SDS011;5493;48.884;8.338;2023-07-20T10:20:30;3.38;;;1.27;;
10880;SDS011;5493;48.884;8.338;2023-07-20T10:23:01;2.53;;;1.08;;
10880;SDS011;5493;48.884;8.338;2023-07-20T10:25:28;1.60;;;1.05;;
10880;SDS011;5493;48.884;8.338;2023-07-20T10:27:56;1.90;;;1.13;;
10880;SDS011;5493;48.884;8.338;2023-07-20T10:30:23;3.85;;;1.17;;
10880;SDS011;5493;48.884;8.338;2023-07-20T10:32:52;1.40;;;1.10;;
10880;SDS011;5493;48.884;8.338;2023-07-20T10:35:19;2.22;;;1.27;;
10880;SDS011;5493;48.884;8.338;2023-07-20T10:37:50;1.38;;;1.10;;
10880;SDS011;5493;48.884;8.338;2023-07-20T10:40:31;1.23;;;1.00;;
10880;SDS011;5493;48.884;8.338;2023-07-20T10:43:00;1.75;;;1.17;;
10880;SDS011;5493;48.884;8.338;2023-07-20T10:45:35;2.80;;;1.02;;
10880;SDS011;5493;48.884;8.338;2023-07-20T10:48:03;4.88;;;1.33;;
10880;SDS011;5493;48.884;8.338;2023-07-20T10:50:31;1.63;;;1.20;;
10880;SDS011;5493;48.884;8.338;2023-07-20T10:53:06;1.75;;;1.10;;
10880;SDS011;5493;48.884;8.338;2023-07-20T10:55:36;2.42;;;1.05;;
10880;SDS011;5493;48.884;8.338;2023-07-20T10:58:07;1.38;;;1.15;;
10880;SDS011;5493;48.884;8.338;2023-07-20T11:00:34;1.20;;;0.98;;
10880;SDS011;5493;48.884;8.338;2023-07-20T11:03:02;3.65;;;1.30;;
10880;SDS011;5493;48.884;8.338;2023-07-20T11:05:32;1.92;;;0.90;;
10880;SDS011;5493;48.884;8.338;2023-07-20T11:07:59;2.30;;;1.08;;
10880;SDS011;5493;48.884;8.338;2023-07-20T11:10:27;1.55;;;1.40;;
10880;SDS011;5493;48.884;8.338;2023-07-20T11:15:45;1.45;;;1.02;;
10880;SDS011;5493;48.884;8.338;2023-07-20T11:18:13;1.30;;;1.02;;
10880;SDS011;5493;48.884;8.338;2023-07-20T11:20:40;1.92;;;0.70;;
10880;SDS011;5493;48.884;8.338;2023-07-20T11:23:07;2.20;;;1.05;;
10880;SDS011;5493;48.884;8.338;2023-07-20T11:25:39;1.42;;;0.90;;
10880;SDS011;5493;48.884;8.338;2023-07-20T11:28:07;1.27;;;1.00;;
10880;SDS011;5493;48.884;8.338;2023-07-20T11:30:35;1.92;;;1.10;;
10880;SDS011;5493;48.884;8.338;2023-07-20T11:33:02;3.65;;;1.20;;
10880;SDS011;5493;48.884;8.338;2023-07-20T11:35:29;0.98;;;0.88;;
10880;SDS011;5493;48.884;8.338;2023-07-20T11:37:56;1.42;;;1.25;;
10880;SDS011;5493;48.884;8.338;2023-07-20T11:40:23;1.83;;;1.10;;
10880;SDS011;5493;48.884;8.338;2023-07-20T11:42:51;1.55;;;0.82;;
10880;SDS011;5493;48.884;8.338;2023-07-20T11:45:19;3.65;;;1.10;;
10880;SDS011;5493;48.884;8.338;2023-07-20T11:47:46;1.65;;;1.05;;
10880;SDS011;5493;48.884;8.338;2023-07-20T11:50:12;0.80;;;0.80;;
10880;SDS011;5493;48.884;8.338;2023-07-20T11:52:39;0.95;;;0.80;;
10880;SDS011;5493;48.884;8.338;2023-07-20T11:55:06;0.90;;;0.80;;
10880;SDS011;5493;48.884;8.338;2023-07-20T11:57:34;0.93;;;0.75;;
10880;SDS011;5493;48.884;8.338;2023-07-20T12:00:03;1.40;;;1.00;;
10880;SDS011;5493;48.884;8.338;2023-07-20T12:02:34;1.52;;;0.90;;
10880;SDS011;5493;48.884;8.338;2023-07-20T12:05:01;2.30;;;1.00;;
10880;SDS011;5493;48.884;8.338;2023-07-20T12:07:29;0.90;;;0.80;;
10880;SDS011;5493;48.884;8.338;2023-07-20T12:10:05;1.17;;;0.93;;
10880;SDS011;5493;48.884;8.338;2023-07-20T12:12:32;1.27;;;0.95;;
10880;SDS011;5493;48.884;8.338;2023-07-20T12:15:13;0.95;;;0.85;;
10880;SDS011;5493;48.884;8.338;2023-07-20T12:17:43;1.30;;;0.90;;
10880;SDS011;5493;48.884;8.338;2023-07-20T12:20:10;1.80;;;0.88;;
10880;SDS011;5493;48.884;8.338;2023-07-20T12:22:40;2.13;;;0.90;;
10880;SDS011;5493;48.884;8.338;2023-07-20T12:25:09;1.10;;;0.93;;
10880;SDS011;5493;48.884;8.338;2023-07-20T12:27:36;1.98;;;0.95;;
10880;SDS011;5493;48.884;8.338;2023-07-20T12:30:04;1.02;;;0.80;;
10880;SDS011;5493;48.884;8.338;2023-07-20T12:32:33;1.48;;;0.90;;
10880;SDS011;5493;48.884;8.338;2023-07-20T12:34:59;0.95;;;0.82;;
10880;SDS011;5493;48.884;8.338;2023-07-20T12:37:26;1.08;;;0.75;;
10880;SDS011;5493;48.884;8.338;2023-07-20T12:39:52;1.30;;;0.90;;
10880;SDS011;5493;48.884;8.338;2023-07-20T12:42:19;0.85;;;0.70;;
10880;SDS011;5493;48.884;8.338;2023-07-20T12:44:46;1.00;;;0.80;;
10880;SDS011;5493;48.884;8.338;2023-07-20T12:47:15;2.38;;;0.82;;
10880;SDS011;5493;48.884;8.338;2023-07-20T12:49:44;2.25;;;0.70;;
10880;SDS011;5493;48.884;8.338;2023-07-20T12:52:11;1.20;;;0.90;;
10880;SDS011;5493;48.884;8.338;2023-07-20T12:54:38;0.82;;;0.73;;
10880;SDS011;5493;48.884;8.338;2023-07-20T12:57:05;0.85;;;0.65;;
10880;SDS011;5493;48.884;8.338;2023-07-20T12:59:32;1.38;;;0.75;;
10880;SDS011;5493;48.884;8.338;2023-07-20T13:01:59;0.98;;;0.70;;
10880;SDS011;5493;48.884;8.338;2023-07-20T13:04:27;1.38;;;0.90;;
10880;SDS011;5493;48.884;8.338;2023-07-20T13:06:55;1.45;;;0.90;;
10880;SDS011;5493;48.884;8.338;2023-07-20T13:09:23;1.00;;;0.90;;
10880;SDS011;5493;48.884;8.338;2023-07-20T13:11:50;1.00;;;0.80;;
10880;SDS011;5493;48.884;8.338;2023-07-20T13:14:17;0.88;;;0.80;;
10880;SDS011;5493;48.884;8.338;2023-07-20T13:16:43;1.45;;;0.90;;
10880;SDS011;5493;48.884;8.338;2023-07-20T13:19:10;1.17;;;0.90;;
10880;SDS011;5493;48.884;8.338;2023-07-20T13:21:36;0.80;;;0.60;;
10880;SDS011;5493;48.884;8.338;2023-07-20T13:24:05;0.98;;;0.75;;
10880;SDS011;5493;48.884;8.338;2023-07-20T13:26:31;0.95;;;0.65;;
10880;SDS011;5493;48.884;8.338;2023-07-20T13:28:58;1.23;;;0.90;;
10880;SDS011;5493;48.884;8.338;2023-07-20T13:31:24;1.02;;;0.93;;
10880;SDS011;5493;48.884;8.338;2023-07-20T13:33:51;1.38;;;0.80;;
10880;SDS011;5493;48.884;8.338;2023-07-20T13:36:18;1.50;;;0.80;;
10880;SDS011;5493;48.884;8.338;2023-07-20T13:38:45;1.08;;;0.82;;
10880;SDS011;5493;48.884;8.338;2023-07-20T13:41:15;1.40;;;0.85;;
10880;SDS011;5493;48.884;8.338;2023-07-20T13:43:41;1.35;;;1.02;;
10880;SDS011;5493;48.884;8.338;2023-07-20T13:46:08;1.98;;;1.00;;
10880;SDS011;5493;48.884;8.338;2023-07-20T13:48:34;1.35;;;0.82;;
10880;SDS011;5493;48.884;8.338;2023-07-20T13:51:01;1.55;;;0.88;;
10880;SDS011;5493;48.884;8.338;2023-07-20T13:53:27;1.27;;;0.90;;
10880;SDS011;5493;48.884;8.338;2023-07-20T13:55:55;0.95;;;0.70;;
10880;SDS011;5493;48.884;8.338;2023-07-20T13:58:23;1.48;;;0.90;;
10880;SDS011;5493;48.884;8.338;2023-07-20T14:00:50;1.25;;;0.80;;
10880;SDS011;5493;48.884;8.338;2023-07-20T14:03:16;1.35;;;0.85;;
10880;SDS011;5493;48.884;8.338;2023-07-20T14:05:42;1.25;;;0.95;;
10880;SDS011;5493;48.884;8.338;2023-07-20T14:08:09;1.33;;;0.88;;
10880;SDS011;5493;48.884;8.338;2023-07-20T14:10:36;1.05;;;0.88;;
10880;SDS011;5493;48.884;8.338;2023-07-20T14:13:03;2.38;;;0.90;;
10880;SDS011;5493;48.884;8.338;2023-07-20T14:15:31;2.08;;;0.80;;
10880;SDS011;5493;48.884;8.338;2023-07-20T14:17:57;2.20;;;0.90;;
10880;SDS011;5493;48.884;8.338;2023-07-20T14:20:24;1.27;;;1.02;;
10880;SDS011;5493;48.884;8.338;2023-07-20T14:22:50;1.30;;;0.90;;
10880;SDS011;5493;48.884;8.338;2023-07-20T14:25:16;1.25;;;0.82;;
10880;SDS011;5493;48.884;8.338;2023-07-20T14:27:43;1.25;;;0.90;;
10880;SDS011;5493;48.884;8.338;2023-07-20T14:30:10;1.23;;;0.90;;
10880;SDS011;5493;48.884;8.338;2023-07-20T14:32:40;1.30;;;1.15;;
10880;SDS011;5493;48.884;8.338;2023-07-20T14:35:07;1.13;;;0.80;;
10880;SDS011;5493;48.884;8.338;2023-07-20T14:37:34;1.38;;;1.00;;
10880;SDS011;5493;48.884;8.338;2023-07-20T14:40:01;2.10;;;1.00;;
10880;SDS011;5493;48.884;8.338;2023-07-20T14:42:30;1.30;;;1.00;;
10880;SDS011;5493;48.884;8.338;2023-07-20T14:44:57;1.02;;;0.93;;
10880;SDS011;5493;48.884;8.338;2023-07-20T14:47:23;1.17;;;0.88;;
10880;SDS011;5493;48.884;8.338;2023-07-20T14:49:51;1.27;;;0.90;;
10880;SDS011;5493;48.884;8.338;2023-07-20T14:52:18;2.85;;;1.15;;
10880;SDS011;5493;48.884;8.338;2023-07-20T14:54:44;1.95;;;0.77;;
10880;SDS011;5493;48.884;8.338;2023-07-20T14:57:11;1.25;;;0.90;;
10880;SDS011;5493;48.884;8.338;2023-07-20T14:59:39;1.20;;;1.00;;
10880;SDS011;5493;48.884;8.338;2023-07-20T15:02:06;3.03;;;0.90;;
10880;SDS011;5493;48.884;8.338;2023-07-20T15:04:33;2.13;;;1.23;;
10880;SDS011;5493;48.884;8.338;2023-07-20T15:07:01;1.40;;;1.17;;